WMT4KA LIPX-LATI
Flight info
| Callsign | WMT4KA |
|---|---|
| Flight time | N/A |
| Altitude | 37000 |
| Route | TUVDE Y922 KOPER DCT NIKOL DCT NERRA DCT BALHA DCT TIBRI DCT BIGLO L187 LASTI L607 PETAK |
| Aircraft | A321/M-SDE3FGHIRWY/LB1 |
Departure
| Time | 2026-05-09 12:27 |
|---|---|
| Airport | Verona Villafranca Valerio Catullo Airport (LIPX) |
Arrival
| Time | N/A |
|---|---|
| Airport | Tirana International Airport Mother Teresa (LATI) |
| Time | Latitude | Longitude | Altitude | Speed | Heading |
|---|---|---|---|---|---|
| 2026-05-09 11:50 | 45.40359 | 10.90678 | 242 ft | 0 kts | 135° |
| 2026-05-09 12:14 | 45.40362 | 10.90673 | 242 ft | 3 kts | 135° |
| 2026-05-09 12:14 | 45.40378 | 10.90651 | 242 ft | 3 kts | 144° |
| 2026-05-09 12:15 | 45.40397 | 10.90640 | 242 ft | 3 kts | 186° |
| 2026-05-09 12:15 | 45.40416 | 10.90649 | 242 ft | 3 kts | 220° |
| 2026-05-09 12:15 | 45.40425 | 10.90660 | 242 ft | 1 kts | 226° |
| 2026-05-09 12:15 | 45.40425 | 10.90661 | 242 ft | 0 kts | 226° |
| 2026-05-09 12:18 | 45.40425 | 10.90660 | 242 ft | 0 kts | 226° |
| 2026-05-09 12:18 | 45.40422 | 10.90656 | 242 ft | 1 kts | 226° |
| 2026-05-09 12:18 | 45.40412 | 10.90642 | 242 ft | 4 kts | 226° |
| 2026-05-09 12:19 | 45.40375 | 10.90587 | 242 ft | 11 kts | 225° |
| 2026-05-09 12:19 | 45.40315 | 10.90501 | 242 ft | 13 kts | 225° |
| 2026-05-09 12:19 | 45.40259 | 10.90399 | 242 ft | 11 kts | 268° |
| 2026-05-09 12:19 | 45.40309 | 10.90308 | 242 ft | 13 kts | 316° |
| 2026-05-09 12:20 | 45.40328 | 10.90210 | 243 ft | 6 kts | 266° |
| 2026-05-09 12:20 | 45.40345 | 10.90157 | 244 ft | 6 kts | 295° |
| 2026-05-09 12:20 | 45.40362 | 10.90103 | 245 ft | 6 kts | 294° |
| 2026-05-09 12:20 | 45.40373 | 10.90036 | 245 ft | 8 kts | 262° |
| 2026-05-09 12:21 | 45.40321 | 10.89943 | 247 ft | 13 kts | 238° |
| 2026-05-09 12:21 | 45.40344 | 10.89873 | 248 ft | 9 kts | 313° |
| 2026-05-09 12:21 | 45.40414 | 10.89764 | 248 ft | 13 kts | 291° |
| 2026-05-09 12:21 | 45.40377 | 10.89677 | 247 ft | 13 kts | 225° |
| 2026-05-09 12:22 | 45.40303 | 10.89571 | 246 ft | 17 kts | 225° |
| 2026-05-09 12:22 | 45.40209 | 10.89433 | 245 ft | 21 kts | 225° |
| 2026-05-09 12:22 | 45.40104 | 10.89281 | 244 ft | 22 kts | 226° |
| 2026-05-09 12:22 | 45.39992 | 10.89117 | 242 ft | 24 kts | 225° |
| 2026-05-09 12:23 | 45.39872 | 10.88943 | 241 ft | 25 kts | 225° |
| 2026-05-09 12:23 | 45.39746 | 10.88761 | 240 ft | 26 kts | 226° |
| 2026-05-09 12:23 | 45.39615 | 10.88569 | 238 ft | 27 kts | 226° |
| 2026-05-09 12:23 | 45.39479 | 10.88371 | 237 ft | 29 kts | 225° |
| 2026-05-09 12:24 | 45.39348 | 10.88181 | 238 ft | 27 kts | 225° |
| 2026-05-09 12:24 | 45.39216 | 10.87989 | 234 ft | 28 kts | 225° |
| 2026-05-09 12:24 | 45.39079 | 10.87790 | 232 ft | 29 kts | 225° |
| 2026-05-09 12:24 | 45.38948 | 10.87600 | 231 ft | 27 kts | 225° |
| 2026-05-09 12:25 | 45.38859 | 10.87499 | 230 ft | 9 kts | 179° |
| 2026-05-09 12:25 | 45.38822 | 10.87537 | 230 ft | 5 kts | 138° |
| 2026-05-09 12:25 | 45.38791 | 10.87579 | 230 ft | 8 kts | 136° |
| 2026-05-09 12:25 | 45.38758 | 10.87660 | 230 ft | 11 kts | 75° |
| 2026-05-09 12:26 | 45.38809 | 10.87746 | 231 ft | 13 kts | 45° |
| 2026-05-09 12:26 | 45.38992 | 10.88013 | 233 ft | 75 kts | 45° |
| 2026-05-09 12:26 | 45.39529 | 10.88794 | 240 ft | 142 kts | 45° |
| 2026-05-09 12:26 | 45.40305 | 10.89924 | 571 ft | 163 kts | 45° |
| 2026-05-09 12:27 | 45.40907 | 10.91275 | 1229 ft | 168 kts | 82° |
| 2026-05-09 12:27 | 45.40870 | 10.92413 | 1533 ft | 177 kts | 106° |
| 2026-05-09 12:27 | 45.40200 | 10.93978 | 1802 ft | 198 kts | 133° |
| 2026-05-09 12:27 | 45.39308 | 10.95646 | 2095 ft | 225 kts | 124° |
| 2026-05-09 12:28 | 45.38450 | 10.97693 | 2397 ft | 255 kts | 118° |
| 2026-05-09 12:28 | 45.37632 | 10.99976 | 3074 ft | 265 kts | 116° |
| 2026-05-09 12:28 | 45.36826 | 11.02377 | 4004 ft | 267 kts | 116° |
| 2026-05-09 12:28 | 45.36035 | 11.04741 | 4881 ft | 270 kts | 116° |
| 2026-05-09 12:29 | 45.35215 | 11.07162 | 5722 ft | 273 kts | 116° |
| 2026-05-09 12:29 | 45.34372 | 11.09598 | 6567 ft | 276 kts | 116° |
| 2026-05-09 12:29 | 45.33508 | 11.12054 | 7344 ft | 280 kts | 117° |
| 2026-05-09 12:29 | 45.32620 | 11.14555 | 8115 ft | 285 kts | 117° |
| 2026-05-09 12:30 | 45.31711 | 11.17092 | 8858 ft | 291 kts | 117° |
| 2026-05-09 12:30 | 45.30802 | 11.19685 | 9620 ft | 295 kts | 116° |
| 2026-05-09 12:30 | 45.28942 | 11.25106 | 10621 ft | 325 kts | 116° |
| 2026-05-09 12:31 | 45.27921 | 11.28080 | 10958 ft | 341 kts | 116° |
| 2026-05-09 12:31 | 45.25800 | 11.34242 | 12294 ft | 352 kts | 117° |
| 2026-05-09 12:31 | 45.24738 | 11.37317 | 12972 ft | 356 kts | 117° |
| 2026-05-09 12:32 | 45.23620 | 11.40542 | 13713 ft | 358 kts | 117° |
| 2026-05-09 12:32 | 45.22506 | 11.43726 | 14391 ft | 362 kts | 117° |
| 2026-05-09 12:32 | 45.21386 | 11.46942 | 15074 ft | 365 kts | 117° |
| 2026-05-09 12:32 | 45.20241 | 11.50157 | 15804 ft | 366 kts | 118° |
| 2026-05-09 12:33 | 45.19058 | 11.53361 | 16552 ft | 367 kts | 120° |
| 2026-05-09 12:33 | 45.17850 | 11.56610 | 16892 ft | 380 kts | 120° |
| 2026-05-09 12:33 | 45.16559 | 11.59954 | 17179 ft | 393 kts | 121° |
| 2026-05-09 12:33 | 45.15188 | 11.63368 | 17600 ft | 401 kts | 119° |